Lone Wolf, Oklahoma
Current Conditions -  °F | °C
As of 1:53 PM on Saturday 25 Oct 2014 (Local Time) from KHBR Reporting Station
Clear Clear  
Wind Chill: 90°   Ceiling: Unl
Heat Index: 90°   Visibility: 10mi
Dew Point: 52°   Wind: 10mph
Humidity: 27%   Direction: 230°SW
Pressure: 30.08"   Gusts: NA
Location:  34.99°N, 99.25°W
Report Text: KHBR 251853Z AUTO 23009KT 10SM CLR 32/11 A3008 RMK AO2 SLP167 T03220111
Loading
Personal Weather Stations






























Interactive Weather Map
Tropical Storm Tracking
New forecast layout! Learn more

10-Day Weather Forecast

Advertisements
Track Severe Weather on mobile